Elena Of London — 2COR3 — position and weather

sailwx.info

Track history (hours):
 
Tides and Currents Weather Stations Pressure Air Temp Water Temp Dewpoint Dewpoint Depression Visibility Wind Speed Wind Dir Waves Ship Positions

Elena Of London

Last reported at 2016-Jun-28 17:33 UTC. Time now 2016-Jun-28 20:39 UTC.
Position N 43°49' E 007°48'.

Length 44 m; draft 5.2 m.

Type: Sailing vessel. MMSI: 235074534.

Date/timePositionNaut miles runAvg speedWind from/ knotsBaromVisibWave heightAir tempDewpointWater temp
2016-Jun-28 17:33N 43°49' E 007°48'  
2016-Jun-25 21:33N 43°43' E 007°42'10 9.5
2016-Jun-25 20:32N 43°35' E 007°33'9 9.5
2016-Jun-25 19:34N 43°27' E 007°26'10 9.8
2016-Jun-25 18:29N 43°17' E 007°22'1010.5
2016-Jun-25 17:30N 43°09' E 007°14'1010.9
2016-Jun-25 16:33N 43°01' E 007°06'1111.1
2016-Jun-25 15:34N 42°52' E 006°57'1211.3
2016-Jun-25 14:28N 42°42' E 006°46'2110.9
2016-Jun-25 12:33N 42°27' E 006°26'18210.7
2016-Jun-24 19:28N 40°06' E 003°52'7 7.9
2016-Jun-24 18:33N 39°60' E 003°49'0 0.1
2016-Jun-24 17:32N 39°60' E 003°49'0 0.0
2016-Jun-24 16:33N 39°60' E 003°49'0 0.0
2016-Jun-24 15:30N 39°60' E 003°49'10 7.2
2016-Jun-24 14:09N 39°52' E 003°42'54 9.0
2016-Jun-24 08:06N 39°17' E 002°47'5 9.6
2016-Jun-24 07:33N 39°22' E 002°44'10 9.6
2016-Jun-24 06:33N 39°31' E 002°40'3 1.6
2016-Jun-24 04:33N 39°34' E 002°38'0 0.0
2016-Jun-24 03:33N 39°34' E 002°38'0 0.0
2016-Jun-24 02:33N 39°34' E 002°38'0 0.0
2016-Jun-24 01:33N 39°34' E 002°38'0 0.0
2016-Jun-24 00:33N 39°34' E 002°38'0 0.0
2016-Jun-23 23:30N 39°34' E 002°38'0 0.0
2016-Jun-23 22:33N 39°34' E 002°38'0 0.0
2016-Jun-23 21:33N 39°34' E 002°38'0 0.0
2016-Jun-23 20:27N 39°34' E 002°38'0 0.0
2016-Jun-23 19:33N 39°34' E 002°38'0 0.0
2016-Jun-23 18:33N 39°34' E 002°38'0 0.0
2016-Jun-23 17:33N 39°34' E 002°38'0 0.0
2016-Jun-23 16:33N 39°34' E 002°38'0 0.0
2016-Jun-23 15:33N 39°34' E 002°38'0 0.0
2016-Jun-23 14:33N 39°34' E 002°38'0 0.0
2016-Jun-23 13:33N 39°34' E 002°38'0 0.0
2016-Jun-23 12:33N 39°34' E 002°38'1 0.8
2016-Jun-23 11:33N 39°33' E 002°39'1 0.8
2016-Jun-23 10:33N 39°34' E 002°38'  
2016-Jun-20 19:29N 39°34' E 002°38'0 0.0
2016-Jun-20 18:33N 39°34' E 002°38'5 5.1
2016-Jun-20 17:33N 39°30' E 002°35'12 6.0
2016-Jun-20 15:31N 39°40' E 002°26'1010.4
2016-Jun-20 14:33N 39°45' E 002°37'1 1.4
2016-Jun-20 13:33N 39°46' E 002°38'0 0.0
2016-Jun-20 12:28N 39°46' E 002°38'4 4.0
2016-Jun-20 11:33N 39°49' E 002°41'1110.8
2016-Jun-20 10:33N 39°55' E 002°53'1210.5
2016-Jun-20 09:23N 40°00' E 003°07'8 9.4
2016-Jun-20 08:33N 40°04' E 003°16'  
Track history (hours):
 
Tides and Currents Weather Stations Pressure Air Temp Water Temp Dewpoint Dewpoint Depression Visibility Wind Speed Wind Dir Waves Ship Positions

Elena Of London

Last reported at 2016-Jun-28 17:33 UTC. Time now 2016-Jun-28 20:39 UTC.
Position N 43°49' E 007°48'.

Length 44 m; draft 5.2 m.

Type: Sailing vessel. MMSI: 235074534.

Date/timePositionNaut miles runAvg speedWind from/ knotsBaromVisibWave heightAir tempDewpointWater temp
2016-Jun-28 17:33N 43°49' E 007°48'  
2016-Jun-25 21:33N 43°43' E 007°42'10 9.5
2016-Jun-25 20:32N 43°35' E 007°33'9 9.5
2016-Jun-25 19:34N 43°27' E 007°26'10 9.8
2016-Jun-25 18:29N 43°17' E 007°22'1010.5
2016-Jun-25 17:30N 43°09' E 007°14'1010.9
2016-Jun-25 16:33N 43°01' E 007°06'1111.1
2016-Jun-25 15:34N 42°52' E 006°57'1211.3
2016-Jun-25 14:28N 42°42' E 006°46'2110.9
2016-Jun-25 12:33N 42°27' E 006°26'18210.7
2016-Jun-24 19:28N 40°06' E 003°52'7 7.9
2016-Jun-24 18:33N 39°60' E 003°49'0 0.1
2016-Jun-24 17:32N 39°60' E 003°49'0 0.0
2016-Jun-24 16:33N 39°60' E 003°49'0 0.0
2016-Jun-24 15:30N 39°60' E 003°49'10 7.2
2016-Jun-24 14:09N 39°52' E 003°42'54 9.0
2016-Jun-24 08:06N 39°17' E 002°47'5 9.6
2016-Jun-24 07:33N 39°22' E 002°44'10 9.6
2016-Jun-24 06:33N 39°31' E 002°40'3 1.6
2016-Jun-24 04:33N 39°34' E 002°38'0 0.0
2016-Jun-24 03:33N 39°34' E 002°38'0 0.0
2016-Jun-24 02:33N 39°34' E 002°38'0 0.0
2016-Jun-24 01:33N 39°34' E 002°38'0 0.0
2016-Jun-24 00:33N 39°34' E 002°38'0 0.0
2016-Jun-23 23:30N 39°34' E 002°38'0 0.0
2016-Jun-23 22:33N 39°34' E 002°38'0 0.0
2016-Jun-23 21:33N 39°34' E 002°38'0 0.0
2016-Jun-23 20:27N 39°34' E 002°38'0 0.0
2016-Jun-23 19:33N 39°34' E 002°38'0 0.0
2016-Jun-23 18:33N 39°34' E 002°38'0 0.0
2016-Jun-23 17:33N 39°34' E 002°38'0 0.0
2016-Jun-23 16:33N 39°34' E 002°38'0 0.0
2016-Jun-23 15:33N 39°34' E 002°38'0 0.0
2016-Jun-23 14:33N 39°34' E 002°38'0 0.0
2016-Jun-23 13:33N 39°34' E 002°38'0 0.0
2016-Jun-23 12:33N 39°34' E 002°38'1 0.8
2016-Jun-23 11:33N 39°33' E 002°39'1 0.8
2016-Jun-23 10:33N 39°34' E 002°38'  
2016-Jun-20 19:29N 39°34' E 002°38'0 0.0
2016-Jun-20 18:33N 39°34' E 002°38'5 5.1
2016-Jun-20 17:33N 39°30' E 002°35'12 6.0
2016-Jun-20 15:31N 39°40' E 002°26'1010.4
2016-Jun-20 14:33N 39°45' E 002°37'1 1.4
2016-Jun-20 13:33N 39°46' E 002°38'0 0.0
2016-Jun-20 12:28N 39°46' E 002°38'4 4.0
2016-Jun-20 11:33N 39°49' E 002°41'1110.8
2016-Jun-20 10:33N 39°55' E 002°53'1210.5
2016-Jun-20 09:23N 40°00' E 003°07'8 9.4
2016-Jun-20 08:33N 40°04' E 003°16'  

Dump ship's entire track history